Sandestin, Florida
Current Conditions -  °F | °C
As of 5:53 AM on Tuesday 27 Jan 2015 (Local Time) from KDTS Reporting Station
Clear Clear  
Wind Chill: 52°   Ceiling: Unl
Heat Index: 52°   Visibility: 10mi
Dew Point: 38°   Wind: 5mph
Humidity: 59%   Direction: NA
Pressure: 30"   Gusts: NA
Location:  30.3738°N, 86.3602°W
Report Text: KDTS 271153Z AUTO VRB04KT 10SM CLR 11/03 A3000 RMK AO2 SLP159 T01110033 10111 20067 55007 TSNO
Loading
Personal Weather Stations






























Interactive Weather Map New forecast layout! Learn more

10-Day Weather Forecast

Advertisements
Track Severe Weather on mobile